KABI/ABI METAR and TAF weather

Enter ICAO airport designator
Station Type Date Time Source
KABI METAR 2020/06/06 20:52 UTC NOAA

KABI 062052Z 18015G21KT 10SM CLR 36/15 A2991 RMK AO2 SLP098 T03560150 57022


Station Type Date Time Source
KABI Decoded METAR 2020/06/06 20:52 UTC NOAA

ABILENE REGIONAL AIRPORT, TX, United States (KABI) 32-25N 099-41W 548M
Jun 06, 2020 - 04:52 PM EDT / 2020.06.06 2052 UTC
Wind: from the S (180 degrees) at 17 MPH (15 KT) gusting to 24 MPH (21 KT):0
Visibility: 10 mile(s):0
Sky conditions: clear
Temperature: 96.1 F (35.6 C)
Heat index: 95.5 F (35.3 C):1
Dew Point: 59.0 F (15.0 C)
Relative Humidity: 29%
Pressure (altimeter): 29.91 in. Hg (1012 hPa)
Pressure tendency: 0.06 inches (2.2 hPa) lower than three hours ago
ob: KABI 062052Z 18015G21KT 10SM CLR 36/15 A2991 RMK AO2 SLP098 T03560150 57022
cycle: 21

Station Type Date Time Source
KABI TAF 2020/06/06 18:22 UTC NOAA

TAF KABI 061720Z 0618/0718 17009KT P6SM SKC
FM062000 14011KT P6SM SKC
FM070300 15006KT P6SM SKC
FM071500 16009KT P6SM SKC

Example: see airport list